Time;durP1;ratioP1;P1;durP2;ratioP2;P2;SDS_P1;SDS_P2;PMS_P1;PMS_P2;Temp;Humidity;BMP_temperature;BMP_pressure;BME280_temperature;BME280_humidity;BME280_pressure;Samples;Min_cycle;Max_cycle;Signal;HPM_P1;HPM_P2
2023/05/05 00:01:03;;;;;;;6.97;1.85;;;;;;;;;;5052444;28;20481;-70
2023/05/05 00:03:30;;;;;;;1.70;1.40;;;;;;;;;;5052735;28;20029;-69
2023/05/05 00:05:56;;;;;;;2.95;1.60;;;;;;;;;;5052519;28;20381;-70
2023/05/05 00:08:23;;;;;;;3.22;1.55;;;;;;;;;;5052600;28;20379;-70
2023/05/05 00:10:50;;;;;;;7.28;1.85;;;;;;;;;;5052576;28;20089;-70
2023/05/05 00:13:17;;;;;;;2.05;1.20;;;;;;;;;;5052534;28;20485;-69
2023/05/05 00:15:44;;;;;;;4.90;1.58;;;;;;;;;;5052770;28;20017;-70
2023/05/05 00:18:11;;;;;;;3.00;1.50;;;;;;;;;;5052462;28;20367;-70
2023/05/05 00:20:37;;;;;;;3.83;1.75;;;;;;;;;;5052381;28;20031;-70
2023/05/05 00:23:04;;;;;;;2.40;1.30;;;;;;;;;;5052289;28;20029;-70
2023/05/05 00:25:30;;;;;;;2.35;1.63;;;;;;;;;;5052468;28;20022;-70
2023/05/05 00:27:56;;;;;;;4.40;1.48;;;;;;;;;;5052259;28;20371;-70
2023/05/05 00:30:23;;;;;;;2.28;1.52;;;;;;;;;;5052226;28;20048;-70
2023/05/05 00:32:50;;;;;;;1.83;1.50;;;;;;;;;;5052495;28;20459;-70
2023/05/05 00:35:19;;;;;;;3.05;1.40;;;;;;;;;;5052243;28;20025;-69
2023/05/05 00:37:45;;;;;;;2.50;1.52;;;;;;;;;;5052090;28;20032;-70
2023/05/05 00:40:12;;;;;;;3.00;1.33;;;;;;;;;;5052193;28;20025;-70
2023/05/05 00:42:52;;;;;;;2.88;1.42;;;;;;;;;;5052421;28;20035;-69
2023/05/05 00:45:19;;;;;;;1.73;1.50;;;;;;;;;;5052457;28;20017;-69
2023/05/05 00:47:53;;;;;;;5.75;1.77;;;;;;;;;;5052387;28;20023;-70
2023/05/05 00:50:37;;;;;;;4.50;1.40;;;;;;;;;;5056448;28;20021;-70
2023/05/05 00:53:04;;;;;;;2.72;1.63;;;;;;;;;;5056293;28;20035;-70
2023/05/05 00:55:31;;;;;;;1.77;1.40;;;;;;;;;;5056340;28;20029;-69
2023/05/05 00:57:59;;;;;;;1.83;1.40;;;;;;;;;;5055903;28;20101;-70
2023/05/05 01:00:25;;;;;;;3.13;1.45;;;;;;;;;;5056101;28;20466;-70
2023/05/05 01:02:52;;;;;;;2.92;1.50;;;;;;;;;;5055734;28;20025;-70
2023/05/05 01:05:19;;;;;;;2.25;1.50;;;;;;;;;;5056063;28;20021;-70
2023/05/05 01:08:06;;;;;;;3.85;1.55;;;;;;;;;;5055837;28;20492;-70
2023/05/05 01:10:36;;;;;;;2.25;1.55;;;;;;;;;;5055861;28;20025;-70
2023/05/05 01:13:02;;;;;;;2.83;1.75;;;;;;;;;;5055921;28;20024;-70
2023/05/05 01:15:33;;;;;;;3.03;1.58;;;;;;;;;;5055576;28;20033;-70
2023/05/05 01:18:18;;;;;;;4.13;1.70;;;;;;;;;;5055954;28;20037;-69
2023/05/05 01:20:49;;;;;;;3.25;1.50;;;;;;;;;;5055665;28;20031;-69
2023/05/05 01:23:15;;;;;;;;;;;;;;;;;;5055847;28;20066;-70
2023/05/05 01:25:42;;;;;;;2.83;1.58;;;;;;;;;;5055715;28;19915;-70
2023/05/05 01:28:11;;;;;;;4.65;1.50;;;;;;;;;;5055269;28;20017;-70
2023/05/05 01:30:50;;;;;;;2.28;1.55;;;;;;;;;;5055441;28;20045;-70
2023/05/05 01:33:19;;;;;;;2.65;1.60;;;;;;;;;;5055430;28;20037;-69
2023/05/05 01:35:49;;;;;;;2.08;1.63;;;;;;;;;;5055130;28;20063;-69
2023/05/05 01:38:17;;;;;;;2.67;1.70;;;;;;;;;;5055175;28;20401;-70
2023/05/05 01:40:46;;;;;;;4.95;1.88;;;;;;;;;;5055255;28;20036;-70
2023/05/05 01:43:13;;;;;;;2.67;1.60;;;;;;;;;;5055429;28;20047;-70
2023/05/05 01:45:41;;;;;;;2.83;1.70;;;;;;;;;;5055184;28;20025;-69
2023/05/05 01:48:08;;;;;;;2.42;1.60;;;;;;;;;;5054835;28;20025;-69
2023/05/05 01:50:35;;;;;;;3.13;1.80;;;;;;;;;;5054932;28;20494;-70
2023/05/05 01:53:03;;;;;;;2.58;1.60;;;;;;;;;;5055556;28;20029;-69
2023/05/05 01:55:30;;;;;;;2.97;1.80;;;;;;;;;;5055349;28;20071;-69
2023/05/05 01:57:58;;;;;;;2.05;1.40;;;;;;;;;;5054862;28;20031;-70
2023/05/05 02:00:25;;;;;;;7.63;1.80;;;;;;;;;;5054388;28;20021;-69
2023/05/05 02:02:55;;;;;;;3.10;1.55;;;;;;;;;;5054782;28;20020;-69
2023/05/05 02:05:23;;;;;;;2.92;1.88;;;;;;;;;;5054726;28;20047;-69
2023/05/05 02:07:50;;;;;;;2.35;1.70;;;;;;;;;;5054800;28;20431;-70
2023/05/05 02:10:17;;;;;;;4.55;1.45;;;;;;;;;;5054993;28;20036;-69
2023/05/05 02:12:44;;;;;;;2.22;1.60;;;;;;;;;;5054919;28;20027;-70
2023/05/05 02:15:12;;;;;;;1.80;1.58;;;;;;;;;;5054603;28;20025;-69
2023/05/05 02:17:41;;;;;;;2.38;1.55;;;;;;;;;;5054358;28;20033;-70
2023/05/05 02:20:08;;;;;;;2.45;1.60;;;;;;;;;;5054825;28;20017;-70
2023/05/05 02:22:35;;;;;;;2.45;1.58;;;;;;;;;;5054707;28;20024;-70
2023/05/05 02:25:02;;;;;;;4.03;1.77;;;;;;;;;;5054798;28;20024;-69
2023/05/05 02:27:30;;;;;;;4.15;1.73;;;;;;;;;;5054560;28;20013;-70
2023/05/05 02:29:59;;;;;;;2.45;1.75;;;;;;;;;;5054492;28;20055;-70
2023/05/05 02:32:33;;;;;;;4.43;1.80;;;;;;;;;;5054134;28;20078;-70
2023/05/05 02:35:11;;;;;;;2.15;1.63;;;;;;;;;;5054763;28;20025;-69
2023/05/05 02:37:38;;;;;;;4.32;1.65;;;;;;;;;;5054310;28;20035;-69
2023/05/05 02:40:05;;;;;;;2.97;1.85;;;;;;;;;;5054126;28;20029;-70
2023/05/05 02:42:35;;;;;;;1.63;1.42;;;;;;;;;;5052805;28;20031;-70
2023/05/05 02:45:05;;;;;;;1.60;1.43;;;;;;;;;;5053942;28;20498;-69
2023/05/05 02:47:35;;;;;;;7.80;1.85;;;;;;;;;;5053883;28;20040;-70
2023/05/05 02:50:02;;;;;;;3.97;1.80;;;;;;;;;;5053960;28;20021;-70
2023/05/05 02:52:28;;;;;;;1.75;1.60;;;;;;;;;;5054469;28;20025;-70
2023/05/05 02:54:55;;;;;;;3.60;1.63;;;;;;;;;;5053932;28;20021;-69
2023/05/05 02:57:25;;;;;;;2.70;1.63;;;;;;;;;;5053571;28;20040;-69
2023/05/05 03:00:05;;;;;;;3.20;1.73;;;;;;;;;;5054036;28;20032;-69
2023/05/05 03:02:55;;;;;;;2.10;1.50;;;;;;;;;;5053725;28;20413;-69
2023/05/05 03:05:27;;;;;;;4.72;1.75;;;;;;;;;;5031788;28;20038;-70
2023/05/05 03:08:03;;;;;;;3.60;1.45;;;;;;;;;;5031587;28;20041;-69
2023/05/05 03:10:30;;;;;;;3.83;1.80;;;;;;;;;;5031074;28;20041;-70
2023/05/05 03:13:00;;;;;;;4.78;1.45;;;;;;;;;;5031237;28;20445;-69
2023/05/05 03:15:40;;;;;;;4.53;1.67;;;;;;;;;;5030835;28;20043;-70
2023/05/05 03:18:09;;;;;;;1.63;1.50;;;;;;;;;;5031674;28;20048;-70
2023/05/05 03:20:36;;;;;;;3.13;1.70;;;;;;;;;;5031174;28;20036;-70
2023/05/05 03:23:03;;;;;;;3.03;1.77;;;;;;;;;;5031257;28;20419;-70
2023/05/05 03:25:48;;;;;;;6.80;1.90;;;;;;;;;;5031291;28;20025;-70
2023/05/05 03:28:15;;;;;;;2.25;1.85;;;;;;;;;;5030851;28;20026;-69
2023/05/05 03:30:41;;;;;;;6.95;2.17;;;;;;;;;;5030904;28;20076;-69
2023/05/05 03:33:10;;;;;;;9.23;1.80;;;;;;;;;;5031240;28;20025;-70
2023/05/05 03:35:36;;;;;;;3.17;1.70;;;;;;;;;;5030825;28;20041;-70
2023/05/05 03:38:02;;;;;;;2.72;1.98;;;;;;;;;;5030823;28;20037;-70
2023/05/05 03:40:29;;;;;;;3.17;1.75;;;;;;;;;;5031258;28;20522;-69
2023/05/05 03:42:55;;;;;;;2.22;1.80;;;;;;;;;;5047332;28;20393;-69
2023/05/05 03:45:21;;;;;;;3.45;2.10;;;;;;;;;;5052877;28;20029;-69
2023/05/05 03:47:47;;;;;;;3.40;1.90;;;;;;;;;;5052845;28;20427;-69
2023/05/05 03:50:14;;;;;;;2.83;1.90;;;;;;;;;;5052731;28;20029;-69
2023/05/05 03:52:40;;;;;;;2.72;1.88;;;;;;;;;;5052728;28;20478;-69
2023/05/05 03:55:07;;;;;;;3.30;2.05;;;;;;;;;;5052738;28;20025;-69
2023/05/05 03:57:33;;;;;;;4.50;1.90;;;;;;;;;;5052853;28;20037;-69
2023/05/05 04:00:00;;;;;;;2.65;1.77;;;;;;;;;;5052631;28;20021;-70
2023/05/05 04:02:26;;;;;;;5.57;2.13;;;;;;;;;;5052585;28;20021;-69
2023/05/05 04:04:52;;;;;;;5.38;1.95;;;;;;;;;;5085077;28;20036;-70
2023/05/05 04:07:21;;;;;;;2.60;1.88;;;;;;;;;;5052699;28;20029;-70
2023/05/05 04:09:47;;;;;;;3.92;1.52;;;;;;;;;;5052951;28;20029;-70
2023/05/05 04:12:13;;;;;;;3.40;1.65;;;;;;;;;;5052377;28;20025;-70
2023/05/05 04:14:40;;;;;;;2.22;1.70;;;;;;;;;;5052419;28;20039;-69
2023/05/05 04:17:06;;;;;;;3.08;1.98;;;;;;;;;;5051570;28;20031;-70
2023/05/05 04:19:32;;;;;;;2.75;1.58;;;;;;;;;;5052299;28;20032;-69
2023/05/05 04:21:59;;;;;;;5.45;1.83;;;;;;;;;;5052334;28;20027;-69
2023/05/05 04:24:25;;;;;;;2.80;1.58;;;;;;;;;;5052448;28;20025;-70
2023/05/05 04:26:52;;;;;;;3.80;1.80;;;;;;;;;;5052141;28;20023;-69
2023/05/05 04:29:18;;;;;;;3.10;2.20;;;;;;;;;;5052102;28;20035;-69
2023/05/05 04:31:45;;;;;;;2.75;1.70;;;;;;;;;;5052562;28;20044;-70
2023/05/05 04:34:11;;;;;;;2.45;1.50;;;;;;;;;;5052361;28;20032;-70
2023/05/05 04:36:37;;;;;;;3.63;1.83;;;;;;;;;;5052181;28;20051;-70
2023/05/05 04:39:05;;;;;;;2.10;1.90;;;;;;;;;;5052459;28;20048;-69
2023/05/05 04:41:32;;;;;;;2.88;1.90;;;;;;;;;;5051879;28;20031;-69
2023/05/05 04:43:58;;;;;;;9.82;2.30;;;;;;;;;;5052403;28;20419;-69
2023/05/05 04:46:25;;;;;;;2.55;1.75;;;;;;;;;;5052237;28;20029;-69
2023/05/05 04:48:51;;;;;;;4.18;2.00;;;;;;;;;;5052090;28;20028;-69
2023/05/05 04:51:17;;;;;;;2.38;1.80;;;;;;;;;;5052131;28;20025;-69
2023/05/05 04:53:44;;;;;;;7.13;1.90;;;;;;;;;;5052353;28;20024;-69
2023/05/05 04:56:10;;;;;;;3.80;1.90;;;;;;;;;;5052358;28;20086;-69
2023/05/05 04:58:36;;;;;;;3.63;1.90;;;;;;;;;;5052029;28;20470;-70
2023/05/05 05:01:03;;;;;;;5.07;1.90;;;;;;;;;;5052183;28;20017;-70
2023/05/05 05:03:30;;;;;;;4.38;2.10;;;;;;;;;;5052044;28;20389;-70
2023/05/05 05:05:57;;;;;;;3.30;1.80;;;;;;;;;;5052266;28;20017;-70
2023/05/05 05:08:23;;;;;;;3.42;1.90;;;;;;;;;;5051882;28;20021;-69
2023/05/05 05:10:49;;;;;;;4.32;1.75;;;;;;;;;;5051977;28;20029;-69
2023/05/05 05:13:16;;;;;;;4.03;2.17;;;;;;;;;;5051835;28;20018;-70
2023/05/05 05:15:42;;;;;;;4.43;1.90;;;;;;;;;;5051851;28;20397;-69
2023/05/05 05:18:08;;;;;;;4.80;1.95;;;;;;;;;;5051937;28;20025;-70
2023/05/05 05:20:35;;;;;;;4.07;2.28;;;;;;;;;;5051844;28;20025;-70
2023/05/05 05:23:01;;;;;;;3.60;1.95;;;;;;;;;;5051718;28;20067;-70
2023/05/05 05:25:27;;;;;;;6.50;2.10;;;;;;;;;;5051542;28;20401;-69
2023/05/05 05:27:54;;;;;;;5.68;2.08;;;;;;;;;;5051757;28;20027;-69
2023/05/05 05:30:20;;;;;;;10.75;2.20;;;;;;;;;;5051690;28;20051;-69
2023/05/05 05:32:47;;;;;;;3.30;2.28;;;;;;;;;;5051878;28;20421;-70
2023/05/05 05:35:13;;;;;;;4.40;2.22;;;;;;;;;;5053751;28;20082;-70
2023/05/05 05:37:39;;;;;;;2.95;2.13;;;;;;;;;;5055256;28;20035;-69
2023/05/05 05:40:06;;;;;;;3.25;1.90;;;;;;;;;;5055001;28;20021;-69
2023/05/05 05:42:32;;;;;;;4.75;2.08;;;;;;;;;;5055598;28;20032;-69
2023/05/05 05:44:59;;;;;;;3.80;2.22;;;;;;;;;;5055334;28;20029;-70
2023/05/05 05:47:25;;;;;;;2.67;1.70;;;;;;;;;;5055279;28;20031;-70
2023/05/05 05:49:51;;;;;;;2.70;1.85;;;;;;;;;;5055203;28;20082;-70
2023/05/05 05:52:18;;;;;;;6.88;2.00;;;;;;;;;;5055329;28;20126;-70
2023/05/05 05:54:44;;;;;;;5.30;1.80;;;;;;;;;;5054931;28;20017;-70
2023/05/05 05:57:11;;;;;;;3.53;1.90;;;;;;;;;;5054824;28;20098;-70
2023/05/05 05:59:37;;;;;;;4.50;1.75;;;;;;;;;;5055152;28;20024;-70
2023/05/05 06:02:03;;;;;;;15.15;2.00;;;;;;;;;;5054800;28;20029;-70
2023/05/05 06:04:30;;;;;;;5.35;1.95;;;;;;;;;;5055232;28;20025;-70
2023/05/05 06:06:56;;;;;;;9.50;1.90;;;;;;;;;;5054781;28;20489;-70
2023/05/05 06:09:23;;;;;;;5.80;2.20;;;;;;;;;;5054835;28;20025;-70
2023/05/05 06:11:50;;;;;;;2.83;1.98;;;;;;;;;;5054843;28;20502;-70
2023/05/05 06:14:17;;;;;;;5.70;1.75;;;;;;;;;;5054658;28;20033;-70
2023/05/05 06:16:43;;;;;;;4.15;1.65;;;;;;;;;;5054346;28;20486;-70
2023/05/05 06:19:10;;;;;;;3.20;1.60;;;;;;;;;;5054911;28;20032;-70
2023/05/05 06:21:36;;;;;;;3.90;1.73;;;;;;;;;;5054542;28;20029;-70
2023/05/05 06:24:03;;;;;;;7.00;1.55;;;;;;;;;;5054522;28;20078;-70
2023/05/05 06:26:30;;;;;;;5.18;1.58;;;;;;;;;;5054380;28;20432;-70
2023/05/05 06:28:56;;;;;;;4.53;1.50;;;;;;;;;;5054652;28;20024;-70
2023/05/05 06:31:23;;;;;;;4.63;1.67;;;;;;;;;;5054201;28;20045;-69
2023/05/05 06:33:49;;;;;;;2.50;1.95;;;;;;;;;;5054219;28;20021;-70
2023/05/05 06:36:15;;;;;;;7.18;1.73;;;;;;;;;;5054402;28;20028;-70
2023/05/05 06:38:42;;;;;;;2.55;1.67;;;;;;;;;;5054018;28;20501;-70
2023/05/05 06:41:08;;;;;;;3.03;1.40;;;;;;;;;;5054440;28;20031;-70
2023/05/05 06:43:34;;;;;;;19.13;2.05;;;;;;;;;;5054348;28;20025;-70
2023/05/05 06:46:01;;;;;;;5.78;1.55;;;;;;;;;;5052785;28;20082;-69
2023/05/05 06:48:27;;;;;;;3.08;1.45;;;;;;;;;;5054151;28;20078;-71
2023/05/05 06:50:53;;;;;;;3.30;1.58;;;;;;;;;;5052774;28;20032;-70
2023/05/05 06:53:20;;;;;;;7.20;1.70;;;;;;;;;;5050929;28;20381;-71
2023/05/05 06:55:46;;;;;;;4.65;1.88;;;;;;;;;;5051746;28;20021;-70
2023/05/05 06:58:13;;;;;;;4.93;1.70;;;;;;;;;;5052489;28;20047;-71
2023/05/05 07:00:39;;;;;;;3.17;1.60;;;;;;;;;;5052182;28;20013;-71
2023/05/05 07:03:06;;;;;;;3.33;1.58;;;;;;;;;;5052935;28;20037;-71
2023/05/05 07:05:32;;;;;;;4.03;1.63;;;;;;;;;;5052874;28;20017;-71
2023/05/05 07:07:59;;;;;;;4.90;1.63;;;;;;;;;;5052058;28;20033;-71
2023/05/05 07:10:25;;;;;;;2.75;1.65;;;;;;;;;;5053185;28;20017;-70
2023/05/05 07:12:53;;;;;;;2.72;1.48;;;;;;;;;;5052858;28;20036;-71
2023/05/05 07:15:20;;;;;;;2.78;1.83;;;;;;;;;;5052626;28;20070;-71
2023/05/05 07:17:46;;;;;;;2.58;1.80;;;;;;;;;;5052602;28;20047;-71
2023/05/05 07:20:13;;;;;;;4.60;1.55;;;;;;;;;;5052655;28;20020;-71
2023/05/05 07:22:39;;;;;;;5.82;1.80;;;;;;;;;;5052261;28;20029;-71
2023/05/05 07:25:05;;;;;;;2.13;1.48;;;;;;;;;;5056651;28;20382;-71
2023/05/05 07:27:32;;;;;;;5.75;1.60;;;;;;;;;;5052197;28;20033;-71
2023/05/05 07:29:58;;;;;;;4.25;1.60;;;;;;;;;;5052250;28;20041;-71
2023/05/05 07:32:25;;;;;;;5.68;1.67;;;;;;;;;;5052254;28;20509;-72
2023/05/05 07:34:51;;;;;;;5.05;1.63;;;;;;;;;;5052630;28;20252;-71
2023/05/05 07:37:18;;;;;;;3.97;1.40;;;;;;;;;;5051917;28;20043;-72
2023/05/05 07:39:46;;;;;;;2.42;1.40;;;;;;;;;;5052092;28;20029;-72
2023/05/05 07:42:12;;;;;;;3.13;1.60;;;;;;;;;;5052298;28;20024;-71
2023/05/05 07:44:39;;;;;;;3.75;1.60;;;;;;;;;;5051977;28;20035;-71
2023/05/05 07:47:05;;;;;;;2.05;1.48;;;;;;;;;;5052250;28;20062;-72
2023/05/05 07:49:32;;;;;;;2.75;1.50;;;;;;;;;;5051889;28;20496;-72
2023/05/05 07:51:58;;;;;;;4.05;1.55;;;;;;;;;;5051991;28;20437;-72
2023/05/05 07:54:25;;;;;;;3.92;1.70;;;;;;;;;;5051766;28;20021;-71
2023/05/05 07:56:52;;;;;;;2.45;1.50;;;;;;;;;;5051957;28;20115;-72
2023/05/05 07:59:18;;;;;;;6.60;1.60;;;;;;;;;;5052377;28;20017;-72
2023/05/05 08:01:45;;;;;;;5.05;1.48;;;;;;;;;;5052074;28;20081;-71
2023/05/05 08:04:11;;;;;;;2.03;1.52;;;;;;;;;;5052033;28;20023;-72
2023/05/05 08:06:37;;;;;;;3.53;1.73;;;;;;;;;;5051858;28;20025;-72
2023/05/05 08:09:04;;;;;;;1.98;1.40;;;;;;;;;;5052359;28;20482;-72
2023/05/05 08:11:30;;;;;;;4.28;1.65;;;;;;;;;;5052017;28;20017;-72
2023/05/05 08:13:56;;;;;;;7.18;1.80;;;;;;;;;;5052353;28;20078;-72
2023/05/05 08:16:23;;;;;;;4.05;1.80;;;;;;;;;;5051984;28;20040;-72
2023/05/05 08:18:49;;;;;;;3.33;1.63;;;;;;;;;;5051919;28;20039;-74
2023/05/05 08:21:17;;;;;;;2.00;1.50;;;;;;;;;;5052115;28;20029;-73
2023/05/05 08:23:43;;;;;;;2.42;1.70;;;;;;;;;;5052051;28;20031;-73
2023/05/05 08:26:09;;;;;;;3.83;1.60;;;;;;;;;;5051871;28;20021;-73
2023/05/05 08:28:36;;;;;;;4.57;1.58;;;;;;;;;;5050761;28;20103;-73
2023/05/05 08:31:04;;;;;;;1.83;1.33;;;;;;;;;;5051953;28;20037;-73
2023/05/05 08:33:30;;;;;;;4.60;1.50;;;;;;;;;;5051801;28;20021;-73
2023/05/05 08:35:56;;;;;;;3.38;1.35;;;;;;;;;;5052401;28;20029;-73
2023/05/05 08:38:23;;;;;;;2.10;1.35;;;;;;;;;;5052289;28;20031;-73
2023/05/05 08:40:50;;;;;;;3.35;1.40;;;;;;;;;;5052127;28;20490;-71
2023/05/05 08:43:21;;;;;;;3.03;1.58;;;;;;;;;;5052011;28;20035;-75
2023/05/05 08:45:48;;;;;;;4.65;1.60;;;;;;;;;;5050202;28;20056;-75
2023/05/05 08:48:17;;;;;;;2.80;1.35;;;;;;;;;;5051079;28;20037;-75
2023/05/05 08:50:45;;;;;;;1.48;1.27;;;;;;;;;;5051877;28;20027;-75
2023/05/05 08:53:15;;;;;;;2.38;1.30;;;;;;;;;;5051667;28;20032;-75
2023/05/05 08:55:49;;;;;;;2.17;1.15;;;;;;;;;;5050799;28;20036;-74
2023/05/05 08:58:17;;;;;;;4.07;1.30;;;;;;;;;;5051323;28;20095;-74
2023/05/05 09:00:45;;;;;;;1.83;1.40;;;;;;;;;;5051506;28;20028;-75
2023/05/05 09:03:11;;;;;;;4.22;1.15;;;;;;;;;;5051442;28;20429;-75
2023/05/05 09:05:38;;;;;;;1.20;0.95;;;;;;;;;;5051424;28;20021;-75
2023/05/05 09:08:08;;;;;;;5.07;1.58;;;;;;;;;;5051405;28;20029;-76
2023/05/05 09:10:35;;;;;;;3.83;1.25;;;;;;;;;;5054711;28;20027;-73
2023/05/05 09:13:05;;;;;;;4.38;1.30;;;;;;;;;;5055441;28;20486;-73
2023/05/05 09:15:32;;;;;;;;;;;;;;;;;;5056122;28;20041;-73
2023/05/05 09:17:58;;;;;;;2.05;1.00;;;;;;;;;;5054873;28;19919;-73
2023/05/05 09:20:29;;;;;;;1.33;0.90;;;;;;;;;;5055283;28;20021;-73
2023/05/05 09:22:56;;;;;;;2.22;1.10;;;;;;;;;;5055201;28;20029;-72
2023/05/05 09:25:23;;;;;;;2.13;1.27;;;;;;;;;;5055202;28;20028;-75
2023/05/05 09:27:49;;;;;;;2.65;1.00;;;;;;;;;;5055033;28;20041;-75
2023/05/05 09:30:34;;;;;;;1.60;0.90;;;;;;;;;;5055029;28;20045;-74
2023/05/05 09:33:01;;;;;;;2.47;1.20;;;;;;;;;;5054941;28;20020;-74
2023/05/05 09:35:28;;;;;;;1.52;1.00;;;;;;;;;;5055081;28;20021;-75
2023/05/05 09:37:56;;;;;;;2.83;1.10;;;;;;;;;;5055087;28;20048;-75
2023/05/05 09:40:23;;;;;;;1.02;0.80;;;;;;;;;;5054793;28;20021;-74
2023/05/05 09:43:00;;;;;;;4.00;1.00;;;;;;;;;;5052599;28;20099;-72
2023/05/05 09:45:26;;;;;;;1.38;0.80;;;;;;;;;;5053451;28;20036;-75
2023/05/05 09:47:53;;;;;;;1.25;0.98;;;;;;;;;;5064670;28;20033;-75
2023/05/05 09:50:19;;;;;;;7.05;1.00;;;;;;;;;;5074402;28;20033;-75
2023/05/05 09:52:54;;;;;;;1.50;0.70;;;;;;;;;;5068269;28;20029;-75
2023/05/05 09:55:21;;;;;;;2.15;0.80;;;;;;;;;;5034807;28;20030;-75
2023/05/05 09:57:47;;;;;;;2.00;1.00;;;;;;;;;;5048502;28;20025;-74
2023/05/05 10:00:14;;;;;;;2.03;1.02;;;;;;;;;;5053658;28;20025;-75
2023/05/05 10:02:40;;;;;;;2.95;0.90;;;;;;;;;;5054502;28;20021;-74
2023/05/05 10:05:17;;;;;;;4.00;1.00;;;;;;;;;;5054041;28;20021;-74
2023/05/05 10:07:44;;;;;;;3.17;1.27;;;;;;;;;;5053962;28;20033;-74
2023/05/05 10:10:12;;;;;;;1.95;1.10;;;;;;;;;;5052747;28;20029;-74
2023/05/05 10:12:38;;;;;;;4.00;1.13;;;;;;;;;;5053752;28;20051;-74
2023/05/05 10:15:06;;;;;;;2.67;1.08;;;;;;;;;;5053150;28;20070;-74
2023/05/05 10:17:35;;;;;;;1.17;0.85;;;;;;;;;;5059958;28;20089;-75
2023/05/05 10:20:05;;;;;;;1.53;1.13;;;;;;;;;;5073592;28;20028;-74
2023/05/05 10:22:35;;;;;;;2.58;0.95;;;;;;;;;;5073658;28;20037;-75
2023/05/05 10:25:02;;;;;;;1.90;0.90;;;;;;;;;;5073700;28;20036;-75
2023/05/05 10:27:32;;;;;;;4.28;1.23;;;;;;;;;;5073349;28;20040;-74
2023/05/05 10:30:07;;;;;;;2.22;1.00;;;;;;;;;;5059659;28;20059;-75
2023/05/05 10:32:34;;;;;;;3.25;1.10;;;;;;;;;;5053410;28;20020;-74
2023/05/05 10:35:02;;;;;;;2.80;1.00;;;;;;;;;;5053785;28;20033;-74
2023/05/05 10:37:28;;;;;;;1.92;1.10;;;;;;;;;;5053354;28;20021;-75
2023/05/05 10:39:58;;;;;;;3.72;1.30;;;;;;;;;;5053508;28;20033;-74
2023/05/05 10:42:26;;;;;;;2.85;1.17;;;;;;;;;;5053752;28;20024;-74
2023/05/05 10:44:52;;;;;;;2.38;1.00;;;;;;;;;;5053002;28;20035;-74
2023/05/05 10:47:20;;;;;;;2.95;1.00;;;;;;;;;;5053110;28;20037;-74
2023/05/05 10:49:50;;;;;;;2.55;1.08;;;;;;;;;;5053179;28;20039;-74
2023/05/05 10:52:32;;;;;;;3.78;1.10;;;;;;;;;;5053322;28;20021;-74
2023/05/05 10:55:08;;;;;;;2.80;1.05;;;;;;;;;;5053193;28;20031;-74
2023/05/05 10:57:38;;;;;;;4.60;1.20;;;;;;;;;;5053350;28;20047;-73
2023/05/05 11:00:06;;;;;;;3.30;1.20;;;;;;;;;;5052797;28;20017;-74
2023/05/05 11:02:32;;;;;;;4.30;1.27;;;;;;;;;;5052985;28;20037;-74
2023/05/05 11:05:14;;;;;;;2.30;1.25;;;;;;;;;;5053272;28;20017;-74
2023/05/05 11:07:41;;;;;;;3.67;1.17;;;;;;;;;;5052975;28;20040;-74
2023/05/05 11:10:08;;;;;;;6.07;1.30;;;;;;;;;;5052894;28;20511;-74
2023/05/05 11:12:53;;;;;;;2.97;1.50;;;;;;;;;;5053034;28;20384;-74
2023/05/05 11:15:25;;;;;;;2.20;1.20;;;;;;;;;;5053619;28;20021;-73
2023/05/05 11:17:53;;;;;;;1.92;1.20;;;;;;;;;;5053572;28;20033;-77
2023/05/05 11:20:45;;;;;;;3.15;1.17;;;;;;;;;;5053444;28;20123;-74
2023/05/05 11:23:11;;;;;;;3.53;1.05;;;;;;;;;;5011258;28;20041;-75
2023/05/05 11:25:39;;;;;;;1.63;1.00;;;;;;;;;;5011364;28;20034;-75
2023/05/05 11:28:11;;;;;;;3.60;1.30;;;;;;;;;;5010872;28;20053;-74
2023/05/05 11:30:56;;;;;;;2.13;1.20;;;;;;;;;;5011108;28;20052;-75
2023/05/05 11:33:27;;;;;;;2.42;1.38;;;;;;;;;;4994227;28;20041;-75
2023/05/05 11:35:56;;;;;;;5.28;1.20;;;;;;;;;;5011090;28;20022;-74
2023/05/05 11:38:26;;;;;;;3.30;1.50;;;;;;;;;;5011530;28;20034;-74
2023/05/05 11:40:57;;;;;;;4.03;1.17;;;;;;;;;;5011055;28;20034;-74
2023/05/05 11:43:23;;;;;;;2.45;1.00;;;;;;;;;;4994509;28;20386;-75
2023/05/05 11:45:50;;;;;;;2.65;1.10;;;;;;;;;;5011054;28;20040;-74
2023/05/05 11:48:26;;;;;;;1.98;1.02;;;;;;;;;;5010915;28;20551;-74
2023/05/05 11:50:53;;;;;;;1.70;1.10;;;;;;;;;;5011039;28;20034;-75
2023/05/05 11:53:19;;;;;;;2.75;1.20;;;;;;;;;;5010799;28;20438;-75
2023/05/05 11:55:46;;;;;;;2.85;1.10;;;;;;;;;;5010912;28;20072;-75
2023/05/05 11:58:18;;;;;;;5.40;1.25;;;;;;;;;;5010404;28;20033;-75
2023/05/05 12:00:45;;;;;;;2.58;1.30;;;;;;;;;;5042522;28;20048;-74
2023/05/05 12:03:11;;;;;;;2.33;1.20;;;;;;;;;;5052373;28;20029;-75
2023/05/05 12:05:38;;;;;;;3.80;1.45;;;;;;;;;;5051586;28;20032;-75
2023/05/05 12:08:04;;;;;;;4.38;1.63;;;;;;;;;;5050784;28;20033;-75
2023/05/05 12:10:30;;;;;;;5.22;1.30;;;;;;;;;;5052514;28;20025;-75
2023/05/05 12:12:57;;;;;;;3.65;1.73;;;;;;;;;;5051953;28;20490;-75
2023/05/05 12:15:30;;;;;;;4.05;1.40;;;;;;;;;;5052131;28;20028;-75
2023/05/05 12:17:56;;;;;;;3.55;1.38;;;;;;;;;;5051453;28;20033;-75
2023/05/05 12:20:31;;;;;;;1.75;1.20;;;;;;;;;;5052168;28;20382;-75
2023/05/05 12:23:03;;;;;;;2.25;1.20;;;;;;;;;;5051875;28;20506;-75
2023/05/05 12:25:36;;;;;;;4.03;1.40;;;;;;;;;;5051716;28;20025;-75
2023/05/05 12:28:04;;;;;;;2.72;1.30;;;;;;;;;;5051728;28;20032;-75
2023/05/05 12:30:30;;;;;;;5.43;1.60;;;;;;;;;;5051940;28;20037;-75
2023/05/05 12:33:04;;;;;;;4.50;1.30;;;;;;;;;;5051801;28;20490;-75
2023/05/05 12:35:30;;;;;;;2.90;1.50;;;;;;;;;;5051826;28;20029;-75
2023/05/05 12:37:57;;;;;;;2.47;1.40;;;;;;;;;;5051665;28;20033;-75
2023/05/05 12:40:43;;;;;;;3.58;1.25;;;;;;;;;;5051651;28;20033;-75
2023/05/05 12:43:10;;;;;;;3.38;1.38;;;;;;;;;;5052262;28;20047;-70
2023/05/05 12:45:36;;;;;;;2.35;1.10;;;;;;;;;;5055717;28;20017;-72
2023/05/05 12:48:21;;;;;;;2.35;1.13;;;;;;;;;;5055582;28;20043;-74
2023/05/05 12:50:47;;;;;;;3.50;1.60;;;;;;;;;;5055657;28;20394;-75
2023/05/05 12:53:23;;;;;;;7.65;1.20;;;;;;;;;;5056012;28;20050;-71
2023/05/05 12:55:50;;;;;;;3.72;1.50;;;;;;;;;;5055583;28;20033;-73
2023/05/05 12:58:17;;;;;;;3.35;1.38;;;;;;;;;;5055690;28;20502;-73
2023/05/05 13:00:43;;;;;;;3.83;1.20;;;;;;;;;;5055460;28;20021;-72
2023/05/05 13:03:19;;;;;;;5.18;1.33;;;;;;;;;;5055665;28;20035;-72
2023/05/05 13:05:45;;;;;;;3.13;1.38;;;;;;;;;;5055927;28;20028;-73
2023/05/05 13:08:11;;;;;;;6.28;1.60;;;;;;;;;;5055529;28;20408;-73
2023/05/05 13:10:40;;;;;;;3.17;1.55;;;;;;;;;;5055069;28;20027;-72
2023/05/05 13:13:07;;;;;;;4.45;1.25;;;;;;;;;;5055688;28;20082;-73
2023/05/05 13:15:33;;;;;;;3.58;1.23;;;;;;;;;;5055654;28;20017;-72
2023/05/05 13:18:01;;;;;;;3.20;1.40;;;;;;;;;;5055908;28;20028;-72
2023/05/05 13:20:27;;;;;;;2.92;1.45;;;;;;;;;;5052949;28;20032;-72
2023/05/05 13:22:54;;;;;;;5.07;1.20;;;;;;;;;;5053863;28;20029;-72
2023/05/05 13:25:20;;;;;;;6.00;1.60;;;;;;;;;;5054946;28;20032;-72
2023/05/05 13:27:46;;;;;;;3.55;1.20;;;;;;;;;;5055010;28;20037;-73
2023/05/05 13:30:13;;;;;;;2.92;1.40;;;;;;;;;;5054743;28;20104;-73
2023/05/05 13:32:40;;;;;;;3.63;1.40;;;;;;;;;;5055046;28;20029;-72
2023/05/05 13:35:06;;;;;;;3.38;1.30;;;;;;;;;;5055023;28;20099;-73
2023/05/05 13:37:33;;;;;;;1.83;1.30;;;;;;;;;;5053797;28;20029;-72
2023/05/05 13:39:59;;;;;;;4.35;1.30;;;;;;;;;;5054815;28;20025;-72
2023/05/05 13:42:25;;;;;;;4.97;1.30;;;;;;;;;;5055106;28;20035;-72
2023/05/05 13:44:51;;;;;;;6.50;1.40;;;;;;;;;;5054806;28;20025;-72
2023/05/05 13:47:18;;;;;;;4.05;1.52;;;;;;;;;;5053446;28;20033;-72
2023/05/05 13:49:44;;;;;;;3.22;1.30;;;;;;;;;;5054949;28;20021;-74
2023/05/05 13:52:11;;;;;;;4.05;1.40;;;;;;;;;;5054507;28;20039;-72
2023/05/05 13:54:37;;;;;;;4.22;1.52;;;;;;;;;;5054501;28;20013;-73
2023/05/05 13:57:06;;;;;;;6.38;1.30;;;;;;;;;;5054670;28;20025;-72
2023/05/05 13:59:33;;;;;;;3.38;1.40;;;;;;;;;;5054478;28;20036;-72
2023/05/05 14:02:00;;;;;;;8.80;1.67;;;;;;;;;;5054613;28;20037;-72
2023/05/05 14:04:26;;;;;;;4.47;1.40;;;;;;;;;;5054835;28;20028;-72
2023/05/05 14:06:52;;;;;;;2.58;1.38;;;;;;;;;;5053853;28;20041;-73
2023/05/05 14:09:18;;;;;;;3.50;1.70;;;;;;;;;;5054364;28;20021;-73
2023/05/05 14:11:45;;;;;;;5.30;1.30;;;;;;;;;;5054337;28;20029;-73
2023/05/05 14:14:11;;;;;;;4.28;1.50;;;;;;;;;;5053705;28;20029;-72
2023/05/05 14:16:38;;;;;;;3.53;1.50;;;;;;;;;;5053008;28;20037;-72
2023/05/05 14:19:04;;;;;;;5.50;1.05;;;;;;;;;;5054280;28;20025;-72
2023/05/05 14:21:31;;;;;;;2.15;1.27;;;;;;;;;;5053862;28;20021;-72
2023/05/05 14:23:57;;;;;;;2.92;1.33;;;;;;;;;;5054369;28;20058;-72
2023/05/05 14:26:24;;;;;;;2.38;1.23;;;;;;;;;;5053992;28;20028;-72
2023/05/05 14:28:50;;;;;;;7.75;1.50;;;;;;;;;;5054309;28;20021;-72
2023/05/05 14:31:17;;;;;;;6.47;1.58;;;;;;;;;;5053898;28;20047;-72
2023/05/05 14:33:43;;;;;;;2.70;1.50;;;;;;;;;;5053879;28;20401;-72
2023/05/05 14:36:10;;;;;;;4.05;1.73;;;;;;;;;;5053479;28;20482;-72
2023/05/05 14:38:36;;;;;;;6.38;2.20;;;;;;;;;;5053694;28;20392;-73
2023/05/05 14:41:02;;;;;;;5.50;2.40;;;;;;;;;;5053990;28;20013;-72
2023/05/05 14:43:28;;;;;;;4.13;2.03;;;;;;;;;;5052513;28;20051;-72
2023/05/05 14:45:57;;;;;;;3.88;1.50;;;;;;;;;;5053388;28;20063;-72
2023/05/05 14:48:23;;;;;;;6.95;1.63;;;;;;;;;;5053625;28;20037;-72